sensor_id;sensor_type;location;lat;lon;timestamp;pressure;altitude;pressure_sealevel;temperature;humidity
11108;BME280;5607;48.302;14.294;2024-01-15T00:01:48;75501.59;;;-143.52;43.14
11108;BME280;5607;48.302;14.294;2024-01-15T00:04:40;75453.69;;;-143.52;42.66
11108;BME280;5607;48.302;14.294;2024-01-15T00:07:27;75475.66;;;-143.52;42.95
11108;BME280;5607;48.302;14.294;2024-01-15T00:10:14;75469.66;;;-143.52;42.73
11108;BME280;5607;48.302;14.294;2024-01-15T00:13:00;75519.56;;;-143.52;43.68
11108;BME280;5607;48.302;14.294;2024-01-15T00:15:47;75513.56;;;-143.52;43.68
11108;BME280;5607;48.302;14.294;2024-01-15T00:18:33;75517.56;;;-143.52;44.14
11108;BME280;5607;48.302;14.294;2024-01-15T00:21:20;75553.50;;;-143.52;44.49
11108;BME280;5607;48.302;14.294;2024-01-15T00:24:08;75523.56;;;-143.52;44.10
11108;BME280;5607;48.302;14.294;2024-01-15T00:26:54;75471.66;;;-143.52;43.21
11108;BME280;5607;48.302;14.294;2024-01-15T00:29:41;75533.53;;;-143.52;44.05
11108;BME280;5607;48.302;14.294;2024-01-15T00:32:28;75559.47;;;-143.52;44.51
11108;BME280;5607;48.302;14.294;2024-01-15T00:35:15;75555.50;;;-143.52;44.58
11108;BME280;5607;48.302;14.294;2024-01-15T00:38:01;75499.59;;;-143.52;43.93
11108;BME280;5607;48.302;14.294;2024-01-15T00:40:48;75465.66;;;-143.52;43.40
11108;BME280;5607;48.302;14.294;2024-01-15T00:43:35;75441.72;;;-143.52;43.11
11108;BME280;5607;48.302;14.294;2024-01-15T00:46:22;75441.72;;;-143.52;43.20
11108;BME280;5607;48.302;14.294;2024-01-15T00:49:09;75493.63;;;-143.52;43.68
11108;BME280;5607;48.302;14.294;2024-01-15T00:51:55;75491.63;;;-143.52;43.89
11108;BME280;5607;48.302;14.294;2024-01-15T00:54:42;75479.63;;;-143.52;43.79
11108;BME280;5607;48.302;14.294;2024-01-15T00:57:28;75475.66;;;-143.52;43.96
11108;BME280;5607;48.302;14.294;2024-01-15T01:00:15;75481.63;;;-143.52;43.73
11108;BME280;5607;48.302;14.294;2024-01-15T01:03:02;75487.63;;;-143.52;43.92
11108;BME280;5607;48.302;14.294;2024-01-15T01:05:49;75569.47;;;-143.52;45.11
11108;BME280;5607;48.302;14.294;2024-01-15T01:08:36;75505.59;;;-143.52;44.16
11108;BME280;5607;48.302;14.294;2024-01-15T01:11:22;75465.66;;;-143.52;43.71
11108;BME280;5607;48.302;14.294;2024-01-15T01:14:09;75473.66;;;-143.52;43.12
11108;BME280;5607;48.302;14.294;2024-01-15T01:16:57;75461.69;;;-143.52;43.51
11108;BME280;5607;48.302;14.294;2024-01-15T01:19:44;75453.69;;;-143.52;43.34
11108;BME280;5607;48.302;14.294;2024-01-15T01:22:31;75433.72;;;-143.52;42.91
11108;BME280;5607;48.302;14.294;2024-01-15T01:25:18;75457.69;;;-143.52;42.84
11108;BME280;5607;48.302;14.294;2024-01-15T01:28:05;75433.72;;;-143.52;42.95
11108;BME280;5607;48.302;14.294;2024-01-15T01:30:51;75499.59;;;-143.52;43.71
11108;BME280;5607;48.302;14.294;2024-01-15T01:33:39;75523.56;;;-143.52;44.04
11108;BME280;5607;48.302;14.294;2024-01-15T01:36:28;75501.59;;;-143.52;43.65
11108;BME280;5607;48.302;14.294;2024-01-15T01:39:15;75541.53;;;-143.52;43.36
11108;BME280;5607;48.302;14.294;2024-01-15T01:42:02;75563.47;;;-143.52;43.64
11108;BME280;5607;48.302;14.294;2024-01-15T01:44:49;75551.50;;;-143.52;43.02
11108;BME280;5607;48.302;14.294;2024-01-15T01:47:36;75571.47;;;-143.52;43.32
11108;BME280;5607;48.302;14.294;2024-01-15T01:50:23;75549.50;;;-143.52;42.85
11108;BME280;5607;48.302;14.294;2024-01-15T01:53:10;75579.44;;;-143.52;43.34
11108;BME280;5607;48.302;14.294;2024-01-15T01:55:57;75657.28;;;-143.52;44.72
11108;BME280;5607;48.302;14.294;2024-01-15T01:58:44;75651.31;;;-143.52;44.79
11108;BME280;5607;48.302;14.294;2024-01-15T02:01:31;75621.38;;;-143.52;44.44
11108;BME280;5607;48.302;14.294;2024-01-15T02:04:19;75609.38;;;-143.52;44.19
11108;BME280;5607;48.302;14.294;2024-01-15T02:07:05;75601.41;;;-143.52;44.18
11108;BME280;5607;48.302;14.294;2024-01-15T02:09:52;75625.34;;;-143.52;44.42
11108;BME280;5607;48.302;14.294;2024-01-15T02:12:39;75623.38;;;-143.52;44.47
11108;BME280;5607;48.302;14.294;2024-01-15T02:15:25;75607.41;;;-143.52;44.22
11108;BME280;5607;48.302;14.294;2024-01-15T02:18:12;75623.38;;;-143.52;44.66
11108;BME280;5607;48.302;14.294;2024-01-15T02:20:58;75577.44;;;-143.52;43.81
11108;BME280;5607;48.302;14.294;2024-01-15T02:23:45;75575.44;;;-143.52;43.94
11108;BME280;5607;48.302;14.294;2024-01-15T02:26:32;75635.34;;;-143.52;44.23
11108;BME280;5607;48.302;14.294;2024-01-15T02:29:22;75585.44;;;-143.52;44.20
11108;BME280;5607;48.302;14.294;2024-01-15T02:32:09;75551.50;;;-143.52;43.38
11108;BME280;5607;48.302;14.294;2024-01-15T02:34:55;75565.47;;;-143.52;43.75
11108;BME280;5607;48.302;14.294;2024-01-15T02:37:42;75577.44;;;-143.52;44.24
11108;BME280;5607;48.302;14.294;2024-01-15T02:40:29;75557.50;;;-143.52;43.63
11108;BME280;5607;48.302;14.294;2024-01-15T02:43:15;75555.50;;;-143.52;43.85
11108;BME280;5607;48.302;14.294;2024-01-15T02:46:02;75573.47;;;-143.52;43.78
11108;BME280;5607;48.302;14.294;2024-01-15T02:48:49;75543.50;;;-143.52;44.03
11108;BME280;5607;48.302;14.294;2024-01-15T02:51:35;75531.53;;;-143.52;43.63
11108;BME280;5607;48.302;14.294;2024-01-15T02:54:22;75501.59;;;-143.52;43.39
11108;BME280;5607;48.302;14.294;2024-01-15T02:57:08;75503.59;;;-143.52;43.68
11108;BME280;5607;48.302;14.294;2024-01-15T02:59:55;75505.59;;;-143.52;43.52
11108;BME280;5607;48.302;14.294;2024-01-15T03:02:45;75505.59;;;-143.52;43.57
11108;BME280;5607;48.302;14.294;2024-01-15T03:05:31;75525.56;;;-143.52;44.22
11108;BME280;5607;48.302;14.294;2024-01-15T03:08:18;75561.47;;;-143.52;44.61
11108;BME280;5607;48.302;14.294;2024-01-15T03:11:04;75523.56;;;-143.52;44.28
11108;BME280;5607;48.302;14.294;2024-01-15T03:13:51;75501.59;;;-143.52;43.75
11108;BME280;5607;48.302;14.294;2024-01-15T03:16:37;75529.53;;;-143.52;44.36
11108;BME280;5607;48.302;14.294;2024-01-15T03:19:24;75567.47;;;-143.52;45.11
11108;BME280;5607;48.302;14.294;2024-01-15T03:22:11;75555.50;;;-143.52;44.83
11108;BME280;5607;48.302;14.294;2024-01-15T03:24:57;75547.50;;;-143.52;44.43
11108;BME280;5607;48.302;14.294;2024-01-15T03:27:44;75559.47;;;-143.52;44.49
11108;BME280;5607;48.302;14.294;2024-01-15T03:30:31;75555.50;;;-143.52;44.53
11108;BME280;5607;48.302;14.294;2024-01-15T03:33:18;75561.47;;;-143.52;44.92
11108;BME280;5607;48.302;14.294;2024-01-15T03:36:05;75499.59;;;-143.52;43.79
11108;BME280;5607;48.302;14.294;2024-01-15T03:38:52;75541.53;;;-143.52;43.84
11108;BME280;5607;48.302;14.294;2024-01-15T03:41:38;75525.56;;;-143.52;43.76
11108;BME280;5607;48.302;14.294;2024-01-15T03:44:25;75591.41;;;-143.52;44.90
11108;BME280;5607;48.302;14.294;2024-01-15T03:47:11;75613.38;;;-143.52;45.57
11108;BME280;5607;48.302;14.294;2024-01-15T03:50:00;75689.22;;;-143.52;46.28
11108;BME280;5607;48.302;14.294;2024-01-15T03:52:47;75631.34;;;-143.52;45.65
11108;BME280;5607;48.302;14.294;2024-01-15T03:55:33;75569.47;;;-143.52;44.84
11108;BME280;5607;48.302;14.294;2024-01-15T03:58:20;75521.56;;;-143.52;44.13
11108;BME280;5607;48.302;14.294;2024-01-15T04:01:10;75529.53;;;-143.52;44.07
11108;BME280;5607;48.302;14.294;2024-01-15T04:03:56;75493.63;;;-143.52;43.26
11108;BME280;5607;48.302;14.294;2024-01-15T04:06:43;75565.47;;;-143.52;44.51
11108;BME280;5607;48.302;14.294;2024-01-15T04:09:29;75509.59;;;-143.52;43.64
11108;BME280;5607;48.302;14.294;2024-01-15T04:12:16;75521.56;;;-143.52;43.66
11108;BME280;5607;48.302;14.294;2024-01-15T04:15:03;75515.56;;;-143.52;43.83
11108;BME280;5607;48.302;14.294;2024-01-15T04:17:52;75475.66;;;-143.52;43.20
11108;BME280;5607;48.302;14.294;2024-01-15T04:20:38;75477.66;;;-143.52;43.39
11108;BME280;5607;48.302;14.294;2024-01-15T04:23:25;75451.69;;;-143.52;43.02
11108;BME280;5607;48.302;14.294;2024-01-15T04:26:11;75453.69;;;-143.52;43.30
11108;BME280;5607;48.302;14.294;2024-01-15T04:28:58;75457.69;;;-143.52;42.89
11108;BME280;5607;48.302;14.294;2024-01-15T04:31:45;75483.63;;;-143.52;43.19
11108;BME280;5607;48.302;14.294;2024-01-15T04:34:31;75473.66;;;-143.52;43.69
11108;BME280;5607;48.302;14.294;2024-01-15T04:37:18;75483.63;;;-143.52;43.34
11108;BME280;5607;48.302;14.294;2024-01-15T04:40:05;75507.59;;;-143.52;43.52
11108;BME280;5607;48.302;14.294;2024-01-15T04:42:52;75475.66;;;-143.52;43.20
11108;BME280;5607;48.302;14.294;2024-01-15T04:45:38;75413.78;;;-143.52;42.64
11108;BME280;5607;48.302;14.294;2024-01-15T04:48:25;75575.44;;;-143.52;45.09
11108;BME280;5607;48.302;14.294;2024-01-15T04:51:11;75481.63;;;-143.52;43.57
11108;BME280;5607;48.302;14.294;2024-01-15T04:53:58;75457.69;;;-143.52;43.23
11108;BME280;5607;48.302;14.294;2024-01-15T04:56:45;75439.72;;;-143.52;43.20
11108;BME280;5607;48.302;14.294;2024-01-15T04:59:32;75407.78;;;-143.52;42.62
11108;BME280;5607;48.302;14.294;2024-01-15T05:02:18;75521.56;;;-143.52;44.15
11108;BME280;5607;48.302;14.294;2024-01-15T05:05:05;75561.47;;;-143.52;45.04
11108;BME280;5607;48.302;14.294;2024-01-15T05:07:51;75499.59;;;-143.52;44.26
11108;BME280;5607;48.302;14.294;2024-01-15T05:10:38;75453.69;;;-143.52;43.71
11108;BME280;5607;48.302;14.294;2024-01-15T05:13:24;75489.63;;;-143.52;43.95
11108;BME280;5607;48.302;14.294;2024-01-15T05:16:11;75517.56;;;-143.52;44.72
11108;BME280;5607;48.302;14.294;2024-01-15T05:18:57;75527.56;;;-143.52;44.56
11108;BME280;5607;48.302;14.294;2024-01-15T05:21:44;75499.59;;;-143.52;44.18
11108;BME280;5607;48.302;14.294;2024-01-15T05:24:30;75505.59;;;-143.52;44.06
11108;BME280;5607;48.302;14.294;2024-01-15T05:27:17;75543.50;;;-143.52;44.69
11108;BME280;5607;48.302;14.294;2024-01-15T05:30:04;75499.59;;;-143.52;43.70
11108;BME280;5607;48.302;14.294;2024-01-15T05:32:51;75483.63;;;-143.52;43.74
11108;BME280;5607;48.302;14.294;2024-01-15T05:35:38;75513.56;;;-143.52;43.89
11108;BME280;5607;48.302;14.294;2024-01-15T05:38:24;75457.69;;;-143.52;43.32
11108;BME280;5607;48.302;14.294;2024-01-15T05:41:11;75453.69;;;-143.52;43.34
11108;BME280;5607;48.302;14.294;2024-01-15T05:43:57;75515.56;;;-143.52;44.26
11108;BME280;5607;48.302;14.294;2024-01-15T05:46:44;75533.53;;;-143.52;44.81
11108;BME280;5607;48.302;14.294;2024-01-15T05:49:30;75513.56;;;-143.52;44.04
11108;BME280;5607;48.302;14.294;2024-01-15T05:52:17;75461.69;;;-143.52;43.30
11108;BME280;5607;48.302;14.294;2024-01-15T05:55:04;75467.66;;;-143.52;43.34
11108;BME280;5607;48.302;14.294;2024-01-15T05:57:51;75455.69;;;-143.52;43.19
11108;BME280;5607;48.302;14.294;2024-01-15T06:00:37;75505.59;;;-143.52;43.63
11108;BME280;5607;48.302;14.294;2024-01-15T06:03:24;75469.66;;;-143.52;43.32
11108;BME280;5607;48.302;14.294;2024-01-15T06:06:11;75451.69;;;-143.52;43.26
11108;BME280;5607;48.302;14.294;2024-01-15T06:08:57;75441.72;;;-143.52;43.17
11108;BME280;5607;48.302;14.294;2024-01-15T06:11:45;75505.59;;;-143.52;44.15
11108;BME280;5607;48.302;14.294;2024-01-15T06:14:32;75457.69;;;-143.52;43.69
11108;BME280;5607;48.302;14.294;2024-01-15T06:17:19;75529.53;;;-143.52;43.65
11108;BME280;5607;48.302;14.294;2024-01-15T06:20:06;75503.59;;;-143.52;44.19
11108;BME280;5607;48.302;14.294;2024-01-15T06:22:52;75449.69;;;-143.52;43.46
11108;BME280;5607;48.302;14.294;2024-01-15T06:25:39;75445.72;;;-143.52;43.14
11108;BME280;5607;48.302;14.294;2024-01-15T06:28:25;75441.72;;;-143.52;42.93
11108;BME280;5607;48.302;14.294;2024-01-15T06:31:12;75441.72;;;-143.52;43.25
11108;BME280;5607;48.302;14.294;2024-01-15T06:33:59;75421.75;;;-143.52;42.91
11108;BME280;5607;48.302;14.294;2024-01-15T06:36:45;75473.66;;;-143.52;43.46
11108;BME280;5607;48.302;14.294;2024-01-15T06:39:32;75397.81;;;-143.52;42.75
11108;BME280;5607;48.302;14.294;2024-01-15T06:42:18;75371.84;;;-143.52;42.27
11108;BME280;5607;48.302;14.294;2024-01-15T06:45:05;75405.78;;;-143.52;42.81
11108;BME280;5607;48.302;14.294;2024-01-15T06:47:52;75425.75;;;-143.52;42.63
11108;BME280;5607;48.302;14.294;2024-01-15T06:50:39;75459.69;;;-143.52;42.97
11108;BME280;5607;48.302;14.294;2024-01-15T06:53:25;75409.78;;;-143.52;42.61
11108;BME280;5607;48.302;14.294;2024-01-15T06:56:12;75431.72;;;-143.52;42.90
11108;BME280;5607;48.302;14.294;2024-01-15T06:58:58;75397.81;;;-143.52;42.56
11108;BME280;5607;48.302;14.294;2024-01-15T07:01:45;75409.78;;;-143.52;42.57
11108;BME280;5607;48.302;14.294;2024-01-15T07:04:31;75429.75;;;-143.52;42.97
11108;BME280;5607;48.302;14.294;2024-01-15T07:07:18;75375.84;;;-143.52;41.93
11108;BME280;5607;48.302;14.294;2024-01-15T07:10:06;75381.84;;;-143.52;41.79
11108;BME280;5607;48.302;14.294;2024-01-15T07:12:52;75441.72;;;-143.52;42.70
11108;BME280;5607;48.302;14.294;2024-01-15T07:15:40;75387.81;;;-143.52;42.56
11108;BME280;5607;48.302;14.294;2024-01-15T07:18:27;75377.84;;;-143.52;41.96
11108;BME280;5607;48.302;14.294;2024-01-15T07:21:14;75337.91;;;-143.52;41.58
11108;BME280;5607;48.302;14.294;2024-01-15T07:24:01;75367.88;;;-143.52;41.65
11108;BME280;5607;48.302;14.294;2024-01-15T07:26:47;75377.84;;;-143.52;42.08
11108;BME280;5607;48.302;14.294;2024-01-15T07:29:34;75315.97;;;-143.52;41.33
11108;BME280;5607;48.302;14.294;2024-01-15T07:32:24;75306.00;;;-143.52;40.95
11108;BME280;5607;48.302;14.294;2024-01-15T07:35:10;75327.94;;;-143.52;41.25
11108;BME280;5607;48.302;14.294;2024-01-15T07:37:57;75306.00;;;-143.52;41.16
11108;BME280;5607;48.302;14.294;2024-01-15T07:40:44;75313.97;;;-143.52;41.23
11108;BME280;5607;48.302;14.294;2024-01-15T07:43:30;75365.88;;;-143.52;41.88
11108;BME280;5607;48.302;14.294;2024-01-15T07:46:17;75300.00;;;-143.52;41.29
11108;BME280;5607;48.302;14.294;2024-01-15T07:49:04;75294.00;;;-143.52;40.80
11108;BME280;5607;48.302;14.294;2024-01-15T07:51:51;75323.94;;;-143.52;41.05
11108;BME280;5607;48.302;14.294;2024-01-15T07:54:38;75333.94;;;-143.52;41.30
11108;BME280;5607;48.302;14.294;2024-01-15T07:57:25;75345.91;;;-143.52;41.55
11108;BME280;5607;48.302;14.294;2024-01-15T08:00:12;75286.03;;;-143.52;40.81
11108;BME280;5607;48.302;14.294;2024-01-15T08:02:58;75238.13;;;-143.52;40.23
11108;BME280;5607;48.302;14.294;2024-01-15T08:05:45;75296.00;;;-143.52;40.73
11108;BME280;5607;48.302;14.294;2024-01-15T08:08:31;75327.94;;;-143.52;40.85
11108;BME280;5607;48.302;14.294;2024-01-15T08:11:18;75409.78;;;-143.52;42.31
11108;BME280;5607;48.302;14.294;2024-01-15T08:14:05;75351.91;;;-143.52;41.76
11108;BME280;5607;48.302;14.294;2024-01-15T08:16:52;75373.84;;;-143.52;41.68
11108;BME280;5607;48.302;14.294;2024-01-15T08:19:38;75429.75;;;-143.52;42.95
11108;BME280;5607;48.302;14.294;2024-01-15T08:22:27;75337.91;;;-143.52;42.13
11108;BME280;5607;48.302;14.294;2024-01-15T08:25:14;75363.88;;;-143.52;42.24
11108;BME280;5607;48.302;14.294;2024-01-15T08:28:01;75294.00;;;-143.52;41.17
11108;BME280;5607;48.302;14.294;2024-01-15T08:30:48;75397.81;;;-143.52;42.36
11108;BME280;5607;48.302;14.294;2024-01-15T08:33:34;75266.06;;;-143.52;41.16
11108;BME280;5607;48.302;14.294;2024-01-15T08:36:22;75254.09;;;-143.52;40.57
11108;BME280;5607;48.302;14.294;2024-01-15T08:39:10;75280.03;;;-143.52;41.03
11108;BME280;5607;48.302;14.294;2024-01-15T08:41:57;75258.09;;;-143.52;40.97
11108;BME280;5607;48.302;14.294;2024-01-15T08:44:44;75244.13;;;-143.52;40.82
11108;BME280;5607;48.302;14.294;2024-01-15T08:47:30;75272.06;;;-143.52;41.09
11108;BME280;5607;48.302;14.294;2024-01-15T08:50:17;75216.16;;;-143.52;40.76
11108;BME280;5607;48.302;14.294;2024-01-15T08:53:03;75250.09;;;-143.52;41.41
11108;BME280;5607;48.302;14.294;2024-01-15T08:55:50;75276.03;;;-143.52;42.10
11108;BME280;5607;48.302;14.294;2024-01-15T08:58:37;75270.06;;;-143.52;42.83
11108;BME280;5607;48.302;14.294;2024-01-15T09:01:23;75266.06;;;-143.52;43.01
11108;BME280;5607;48.302;14.294;2024-01-15T09:04:10;75252.09;;;-143.52;43.31
11108;BME280;5607;48.302;14.294;2024-01-15T09:06:56;75228.16;;;-143.52;43.33
11108;BME280;5607;48.302;14.294;2024-01-15T09:09:43;75242.13;;;-143.52;43.43
11108;BME280;5607;48.302;14.294;2024-01-15T09:12:30;75431.72;;;-143.52;46.97
11108;BME280;5607;48.302;14.294;2024-01-15T09:15:16;75331.94;;;-143.52;46.03
11108;BME280;5607;48.302;14.294;2024-01-15T09:18:04;75264.06;;;-143.52;44.78
11108;BME280;5607;48.302;14.294;2024-01-15T09:20:51;75266.06;;;-143.52;45.10
11108;BME280;5607;48.302;14.294;2024-01-15T09:23:38;75280.03;;;-143.52;45.15
11108;BME280;5607;48.302;14.294;2024-01-15T09:26:24;75244.13;;;-143.52;45.31
11108;BME280;5607;48.302;14.294;2024-01-15T09:29:11;75238.13;;;-143.52;44.76
11108;BME280;5607;48.302;14.294;2024-01-15T09:31:57;75272.06;;;-143.52;45.44
11108;BME280;5607;48.302;14.294;2024-01-15T09:34:48;75238.13;;;-143.52;45.08
11108;BME280;5607;48.302;14.294;2024-01-15T09:37:34;75208.19;;;-143.52;44.60
11108;BME280;5607;48.302;14.294;2024-01-15T09:40:21;75182.25;;;-143.52;44.50
11108;BME280;5607;48.302;14.294;2024-01-15T09:43:08;75246.09;;;-143.52;44.72
11108;BME280;5607;48.302;14.294;2024-01-15T09:45:54;75190.22;;;-143.52;44.50
11108;BME280;5607;48.302;14.294;2024-01-15T09:48:41;75198.19;;;-143.52;45.16
11108;BME280;5607;48.302;14.294;2024-01-15T09:51:31;75194.22;;;-143.52;44.71
11108;BME280;5607;48.302;14.294;2024-01-15T09:54:18;75226.16;;;-143.52;45.16
11108;BME280;5607;48.302;14.294;2024-01-15T09:57:05;75232.13;;;-143.52;45.37
11108;BME280;5607;48.302;14.294;2024-01-15T09:59:53;75234.13;;;-143.52;45.68
11108;BME280;5607;48.302;14.294;2024-01-15T10:02:41;75216.16;;;-143.52;45.19
11108;BME280;5607;48.302;14.294;2024-01-15T10:05:27;75212.19;;;-143.52;45.73
11108;BME280;5607;48.302;14.294;2024-01-15T10:08:14;75242.13;;;-143.52;45.52
11108;BME280;5607;48.302;14.294;2024-01-15T10:11:01;75142.31;;;-143.52;45.29
11108;BME280;5607;48.302;14.294;2024-01-15T10:13:47;75188.22;;;-143.52;45.31
11108;BME280;5607;48.302;14.294;2024-01-15T10:16:39;75112.38;;;-143.52;44.87
11108;BME280;5607;48.302;14.294;2024-01-15T10:19:26;75062.50;;;-143.52;44.54
11108;BME280;5607;48.302;14.294;2024-01-15T10:22:14;75086.44;;;-143.52;44.28
11108;BME280;5607;48.302;14.294;2024-01-15T10:25:02;75070.47;;;-143.52;44.67
11108;BME280;5607;48.302;14.294;2024-01-15T10:27:59;75102.41;;;-143.52;44.87
11108;BME280;5607;48.302;14.294;2024-01-15T10:30:46;75110.38;;;-143.52;44.46
11108;BME280;5607;48.302;14.294;2024-01-15T10:33:33;75108.38;;;-143.52;44.55
11108;BME280;5607;48.302;14.294;2024-01-15T10:36:19;75020.56;;;-143.52;43.84
11108;BME280;5607;48.302;14.294;2024-01-15T10:39:06;75108.38;;;-143.52;44.17
11108;BME280;5607;48.302;14.294;2024-01-15T10:41:53;75118.38;;;-143.52;44.83
11108;BME280;5607;48.302;14.294;2024-01-15T10:44:41;75134.34;;;-143.52;45.29
11108;BME280;5607;48.302;14.294;2024-01-15T10:47:30;75090.44;;;-143.52;44.39
11108;BME280;5607;48.302;14.294;2024-01-15T10:50:18;75066.47;;;-143.52;43.66
11108;BME280;5607;48.302;14.294;2024-01-15T10:53:06;75156.28;;;-143.52;44.94
11108;BME280;5607;48.302;14.294;2024-01-15T10:55:54;75070.47;;;-143.52;43.91
11108;BME280;5607;48.302;14.294;2024-01-15T10:58:41;75016.59;;;-143.52;43.68
11108;BME280;5607;48.302;14.294;2024-01-15T11:01:31;74980.66;;;-143.52;43.32
11108;BME280;5607;48.302;14.294;2024-01-15T11:04:18;74982.66;;;-143.52;42.77
11108;BME280;5607;48.302;14.294;2024-01-15T11:07:06;75018.56;;;-143.52;42.83
11108;BME280;5607;48.302;14.294;2024-01-15T11:09:53;75044.53;;;-143.52;43.52
11108;BME280;5607;48.302;14.294;2024-01-15T11:12:41;74998.63;;;-143.52;43.14
11108;BME280;5607;48.302;14.294;2024-01-15T11:15:27;74952.72;;;-143.52;42.16
11108;BME280;5607;48.302;14.294;2024-01-15T11:18:15;74962.69;;;-143.52;42.10
11108;BME280;5607;48.302;14.294;2024-01-15T11:24:03;74990.63;;;-143.52;43.20
11108;BME280;5607;48.302;14.294;2024-01-15T11:26:53;74962.69;;;-143.52;43.22
11108;BME280;5607;48.302;14.294;2024-01-15T11:29:40;74954.72;;;-143.52;43.21
11108;BME280;5607;48.302;14.294;2024-01-15T11:32:33;74934.75;;;-143.52;43.18
11108;BME280;5607;48.302;14.294;2024-01-15T11:35:20;74934.75;;;-143.52;42.91
11108;BME280;5607;48.302;14.294;2024-01-15T11:38:06;74958.72;;;-143.52;42.63
11108;BME280;5607;48.302;14.294;2024-01-15T11:40:53;74946.72;;;-143.52;41.44
11108;BME280;5607;48.302;14.294;2024-01-15T11:43:40;74934.75;;;-143.52;40.85
11108;BME280;5607;48.302;14.294;2024-01-15T11:46:30;74904.81;;;-143.52;41.19
11108;BME280;5607;48.302;14.294;2024-01-15T11:52:50;75034.53;;;-143.52;41.23
11108;BME280;5607;48.302;14.294;2024-01-15T11:55:44;75028.56;;;-143.52;41.01
11108;BME280;5607;48.302;14.294;2024-01-15T11:58:35;74946.72;;;-143.52;40.76
11108;BME280;5607;48.302;14.294;2024-01-15T12:01:24;74948.72;;;-143.52;39.96
11108;BME280;5607;48.302;14.294;2024-01-15T12:04:11;75002.59;;;-143.52;40.16
11108;BME280;5607;48.302;14.294;2024-01-15T12:06:59;74904.81;;;-143.52;39.60
11108;BME280;5607;48.302;14.294;2024-01-15T12:09:45;74990.63;;;-143.52;40.67
11108;BME280;5607;48.302;14.294;2024-01-15T12:12:58;74968.69;;;-143.52;39.53
11108;BME280;5607;48.302;14.294;2024-01-15T12:15:47;75026.56;;;-143.52;40.92
11108;BME280;5607;48.302;14.294;2024-01-15T12:18:34;75050.50;;;-143.52;40.64
11108;BME280;5607;48.302;14.294;2024-01-15T12:21:20;75072.47;;;-143.52;41.08
11108;BME280;5607;48.302;14.294;2024-01-15T12:24:07;74986.66;;;-143.52;40.21
11108;BME280;5607;48.302;14.294;2024-01-15T12:26:54;74960.69;;;-143.52;40.27
11108;BME280;5607;48.302;14.294;2024-01-15T12:29:40;75016.59;;;-143.52;41.85
11108;BME280;5607;48.302;14.294;2024-01-15T12:32:27;75008.59;;;-143.52;42.19
11108;BME280;5607;48.302;14.294;2024-01-15T12:35:15;74978.66;;;-143.52;41.91
11108;BME280;5607;48.302;14.294;2024-01-15T12:38:02;75014.59;;;-143.52;42.20
11108;BME280;5607;48.302;14.294;2024-01-15T12:40:50;74994.63;;;-143.52;42.23
11108;BME280;5607;48.302;14.294;2024-01-15T12:43:37;74946.72;;;-143.52;41.40
11108;BME280;5607;48.302;14.294;2024-01-15T12:46:23;74976.66;;;-143.52;41.46
11108;BME280;5607;48.302;14.294;2024-01-15T12:49:10;75102.41;;;-143.52;43.05
11108;BME280;5607;48.302;14.294;2024-01-15T12:51:59;75056.50;;;-143.52;41.82
11108;BME280;5607;48.302;14.294;2024-01-15T12:54:46;75000.63;;;-143.52;42.11
11108;BME280;5607;48.302;14.294;2024-01-15T12:57:33;74946.72;;;-143.52;41.44
11108;BME280;5607;48.302;14.294;2024-01-15T13:00:20;74966.69;;;-143.52;41.03
11108;BME280;5607;48.302;14.294;2024-01-15T13:03:07;74962.69;;;-143.52;41.32
11108;BME280;5607;48.302;14.294;2024-01-15T13:05:53;75084.44;;;-143.52;42.08
11108;BME280;5607;48.302;14.294;2024-01-15T13:08:40;74944.72;;;-143.52;40.48
11108;BME280;5607;48.302;14.294;2024-01-15T13:11:27;74962.69;;;-143.52;40.71
11108;BME280;5607;48.302;14.294;2024-01-15T13:14:14;74966.69;;;-143.52;40.22
11108;BME280;5607;48.302;14.294;2024-01-15T13:17:00;74930.75;;;-143.52;40.03
11108;BME280;5607;48.302;14.294;2024-01-15T13:19:47;74904.81;;;-143.52;39.47
11108;BME280;5607;48.302;14.294;2024-01-15T13:22:34;75030.56;;;-143.52;40.11
11108;BME280;5607;48.302;14.294;2024-01-15T13:25:21;74924.78;;;-143.52;39.33
11108;BME280;5607;48.302;14.294;2024-01-15T13:28:07;74914.78;;;-143.52;38.99
11108;BME280;5607;48.302;14.294;2024-01-15T13:30:54;74898.84;;;-143.52;38.76
11108;BME280;5607;48.302;14.294;2024-01-15T13:33:40;74902.81;;;-143.52;38.52
11108;BME280;5607;48.302;14.294;2024-01-15T13:36:27;74898.84;;;-143.52;38.54
11108;BME280;5607;48.302;14.294;2024-01-15T13:39:14;74886.84;;;-143.52;38.68
11108;BME280;5607;48.302;14.294;2024-01-15T13:42:02;74932.75;;;-143.52;38.45
11108;BME280;5607;48.302;14.294;2024-01-15T13:44:49;74948.72;;;-143.52;38.61
11108;BME280;5607;48.302;14.294;2024-01-15T13:47:36;74914.78;;;-143.52;38.59
11108;BME280;5607;48.302;14.294;2024-01-15T13:50:23;74896.84;;;-143.52;38.15
11108;BME280;5607;48.302;14.294;2024-01-15T13:53:10;74964.69;;;-143.52;38.67
11108;BME280;5607;48.302;14.294;2024-01-15T13:55:57;74910.81;;;-143.52;38.56
11108;BME280;5607;48.302;14.294;2024-01-15T13:58:43;74962.69;;;-143.52;38.12
11108;BME280;5607;48.302;14.294;2024-01-15T14:01:30;74918.78;;;-143.52;38.39
11108;BME280;5607;48.302;14.294;2024-01-15T14:04:17;74848.94;;;-143.52;37.56
11108;BME280;5607;48.302;14.294;2024-01-15T14:07:04;74858.91;;;-143.52;37.48
11108;BME280;5607;48.302;14.294;2024-01-15T14:09:51;74970.69;;;-143.52;38.45
11108;BME280;5607;48.302;14.294;2024-01-15T14:12:37;74996.63;;;-143.52;38.86
11108;BME280;5607;48.302;14.294;2024-01-15T14:15:24;74922.78;;;-143.52;37.90
11108;BME280;5607;48.302;14.294;2024-01-15T14:18:10;74944.72;;;-143.52;38.66
11108;BME280;5607;48.302;14.294;2024-01-15T14:20:57;74976.66;;;-143.52;38.31
11108;BME280;5607;48.302;14.294;2024-01-15T14:23:45;75010.59;;;-143.52;38.75
11108;BME280;5607;48.302;14.294;2024-01-15T14:26:33;74922.78;;;-143.52;37.90
11108;BME280;5607;48.302;14.294;2024-01-15T14:29:21;74894.84;;;-143.52;37.98